Terminal Aerodrome Forecast
Issued by NWS Goodland, KS

Home | Current Version | Previous Version | Text Only | Print | Product List | Glossary On
Versions: 1 2 3 4 5 6 7 8 9 10 11 12 13 14 15 16 17 18 19
000
FTUS43 KGLD 181751 AAA
TAFGLD
TAF AMD
KGLD 181751Z 1818/1918 24011G19KT P6SM FEW270
     FM190600 28007KT P6SM SCT270
     FM191200 32008KT P6SM SCT170 SCT270
     FM191700 36007KT P6SM SCT170 SCT270=

USA.gov is the U.S. government's official web portal to all federal, state and local government web resources and services.